createdAt,value
2017-08-02T00:01:03.609Z,13.00
2017-08-02T00:03:31.159Z,24.80
2017-08-02T00:05:58.681Z,9.53
2017-08-02T00:08:26.966Z,8.60
2017-08-02T00:10:54.494Z,10.27
2017-08-02T00:13:22.018Z,10.53
2017-08-02T00:15:49.566Z,12.30
2017-08-02T00:18:17.086Z,12.27
2017-08-02T00:20:45.369Z,12.60
2017-08-02T00:23:13.653Z,12.33
2017-08-02T00:25:41.938Z,11.20
2017-08-02T00:28:09.486Z,8.50
2017-08-02T00:30:37.766Z,8.40
2017-08-02T00:33:05.288Z,5.00
2017-08-02T00:35:32.809Z,8.70
2017-08-02T00:38:00.337Z,14.60
2017-08-02T00:40:28.645Z,6.47
2017-08-02T00:42:56.163Z,4.03
2017-08-02T00:45:24.450Z,6.27
2017-08-02T00:47:51.966Z,4.87
2017-08-02T00:50:19.480Z,3.90
2017-08-02T00:52:47.024Z,7.90
2017-08-02T00:55:14.542Z,3.27
2017-08-02T00:57:42.071Z,5.30
2017-08-02T01:00:09.589Z,4.57
2017-08-02T01:02:37.881Z,4.60
2017-08-02T01:05:05.425Z,4.53
2017-08-02T01:07:33.709Z,6.93
2017-08-02T01:10:01.994Z,5.57
2017-08-02T01:12:29.517Z,5.07
2017-08-02T01:14:57.037Z,3.53
2017-08-02T01:17:24.584Z,4.30
2017-08-02T01:19:52.109Z,3.60
2017-08-02T01:22:20.389Z,3.33
2017-08-02T01:24:48.677Z,4.20
2017-08-02T01:27:16.194Z,4.00
2017-08-02T01:29:43.739Z,4.80
2017-08-02T01:32:11.253Z,3.80
2017-08-02T01:34:38.770Z,3.07
2017-08-02T01:37:06.292Z,3.83
2017-08-02T01:39:33.814Z,3.57
2017-08-02T01:42:02.147Z,3.50
2017-08-02T01:44:29.665Z,3.47
2017-08-02T01:46:57.181Z,4.00
2017-08-02T01:49:24.713Z,5.10
2017-08-02T01:51:52.240Z,3.57
2017-08-02T01:54:19.790Z,3.53
2017-08-02T01:56:48.070Z,4.33
2017-08-02T01:59:15.602Z,3.60
2017-08-02T02:01:43.894Z,3.90
2017-08-02T02:04:12.177Z,6.23
2017-08-02T02:06:39.722Z,3.87
2017-08-02T02:09:08.010Z,5.60
2017-08-02T02:11:36.297Z,4.23
2017-08-02T02:14:03.818Z,3.77
2017-08-02T02:16:31.341Z,4.60
2017-08-02T02:18:58.892Z,2.90
2017-08-02T02:21:26.414Z,3.43
2017-08-02T02:23:54.701Z,3.23
2017-08-02T02:26:22.245Z,3.40
2017-08-02T02:28:50.529Z,4.07
2017-08-02T02:31:18.835Z,3.60
2017-08-02T02:33:46.354Z,3.70
2017-08-02T02:36:14.641Z,3.67
2017-08-02T02:38:43.050Z,3.70
2017-08-02T02:41:10.569Z,6.03
2017-08-02T02:43:38.880Z,5.60
2017-08-02T02:46:06.397Z,3.63
2017-08-02T02:48:34.677Z,4.30
2017-08-02T02:51:02.958Z,3.70
2017-08-02T02:53:31.242Z,3.80
2017-08-02T02:55:58.786Z,5.63
2017-08-02T02:58:27.080Z,5.63
2017-08-02T03:00:54.597Z,4.47
2017-08-02T03:03:22.113Z,3.00
2017-08-02T03:05:49.633Z,3.80
2017-08-02T03:08:17.173Z,4.40
2017-08-02T03:10:44.689Z,4.00
2017-08-02T03:13:12.205Z,3.33
2017-08-02T03:15:39.723Z,3.23
2017-08-02T03:18:07.245Z,3.63
2017-08-02T03:20:34.785Z,3.57
2017-08-02T03:23:03.070Z,4.67
2017-08-02T03:25:31.357Z,3.90
2017-08-02T03:27:58.877Z,3.20
2017-08-02T03:30:26.390Z,3.30
2017-08-02T03:32:53.941Z,3.20
2017-08-02T03:35:21.457Z,3.03
2017-08-02T03:37:48.974Z,3.33
2017-08-02T03:40:16.485Z,3.93
2017-08-02T03:42:44.772Z,4.50
2017-08-02T03:45:13.266Z,3.73
2017-08-02T03:47:40.782Z,3.47
2017-08-02T03:50:08.295Z,3.07
2017-08-02T03:52:35.819Z,4.20
2017-08-02T03:55:04.102Z,3.57
2017-08-02T03:57:32.415Z,15.00
2017-08-02T03:59:59.929Z,4.33
2017-08-02T04:02:28.213Z,6.70
2017-08-02T04:04:56.497Z,4.20
2017-08-02T04:07:24.774Z,3.20
2017-08-02T04:09:52.313Z,3.43
2017-08-02T04:12:20.598Z,3.93
2017-08-02T04:14:48.877Z,3.50
2017-08-02T04:17:17.162Z,3.60
2017-08-02T04:19:44.678Z,3.80
2017-08-02T04:22:12.234Z,3.90
2017-08-02T04:24:39.745Z,4.57
2017-08-02T04:27:07.257Z,4.57
2017-08-02T04:29:34.770Z,4.97
2017-08-02T04:32:02.281Z,6.13
2017-08-02T04:34:29.827Z,4.70
2017-08-02T04:36:57.349Z,6.23
2017-08-02T04:39:24.865Z,5.80
2017-08-02T04:41:53.149Z,8.70
2017-08-02T04:44:21.437Z,5.67
2017-08-02T04:46:49.750Z,5.77
2017-08-02T04:49:17.269Z,6.07
2017-08-02T04:51:44.821Z,6.03
2017-08-02T04:54:13.106Z,5.63
2017-08-02T04:56:41.385Z,5.60
2017-08-02T04:59:08.925Z,6.57
2017-08-02T05:01:37.214Z,8.93
2017-08-02T05:04:05.498Z,6.60
2017-08-02T05:06:33.016Z,8.10
2017-08-02T05:09:00.534Z,6.37
2017-08-02T05:11:28.203Z,6.70
2017-08-02T05:13:55.713Z,6.17
2017-08-02T05:16:23.998Z,8.00
2017-08-02T05:18:52.281Z,8.37
2017-08-02T05:21:19.798Z,7.23
2017-08-02T05:23:47.337Z,6.13
2017-08-02T05:26:14.853Z,5.53
2017-08-02T05:28:42.373Z,6.10
2017-08-02T05:31:09.898Z,5.67
2017-08-02T05:33:37.413Z,5.80
2017-08-02T05:36:05.726Z,5.43
2017-08-02T05:38:33.237Z,5.83
2017-08-02T05:41:00.757Z,5.23
2017-08-02T05:43:28.273Z,5.43
2017-08-02T05:45:56.565Z,6.00
2017-08-02T05:48:24.108Z,8.30
2017-08-02T05:50:52.386Z,5.50
2017-08-02T05:53:20.674Z,6.33
2017-08-02T05:55:48.193Z,6.40
2017-08-02T05:58:15.713Z,5.03
2017-08-02T06:00:43.257Z,7.30
2017-08-02T06:03:10.785Z,5.60
2017-08-02T06:05:39.113Z,5.57
2017-08-02T06:08:06.641Z,5.70
2017-08-02T06:10:34.157Z,6.57
2017-08-02T06:13:01.709Z,5.30
2017-08-02T06:15:29.226Z,5.20
2017-08-02T06:17:56.750Z,4.93
2017-08-02T06:20:25.031Z,5.87
2017-08-02T06:22:53.321Z,5.40
2017-08-02T06:25:20.869Z,4.60
2017-08-02T06:27:49.149Z,5.17
2017-08-02T06:30:17.426Z,7.33
2017-08-02T06:32:45.709Z,4.73
2017-08-02T06:35:13.229Z,5.73
2017-08-02T06:37:40.774Z,5.43
2017-08-02T06:40:08.289Z,5.20
2017-08-02T06:42:35.805Z,4.70
2017-08-02T06:45:03.319Z,5.90
2017-08-02T06:47:30.839Z,4.50
2017-08-02T06:49:59.154Z,6.03
2017-08-02T06:52:26.679Z,5.93
2017-08-02T06:54:54.962Z,5.70
2017-08-02T06:57:23.254Z,4.33
2017-08-02T06:59:50.766Z,4.57
2017-08-02T07:02:18.310Z,4.40
2017-08-02T07:04:45.826Z,4.23
2017-08-02T07:07:13.349Z,4.13
2017-08-02T07:09:40.870Z,6.50
2017-08-02T07:12:08.389Z,4.20
2017-08-02T07:14:36.907Z,4.20
2017-08-02T07:17:04.421Z,4.70
2017-08-02T07:19:32.709Z,3.90
2017-08-02T07:22:00.990Z,4.90
2017-08-02T07:24:28.508Z,3.13
2017-08-02T07:26:56.050Z,8.30
2017-08-02T07:29:23.570Z,4.20
2017-08-02T07:31:51.102Z,5.90
2017-08-02T07:34:19.390Z,3.70
2017-08-02T07:36:47.675Z,4.97
2017-08-02T07:39:15.214Z,7.27
2017-08-02T07:41:43.499Z,3.57
2017-08-02T07:44:11.791Z,3.30
2017-08-02T07:46:39.310Z,3.47
2017-08-02T07:49:06.832Z,3.67
2017-08-02T07:51:34.373Z,4.50
2017-08-02T07:54:01.895Z,5.00
2017-08-02T07:56:29.407Z,4.60
2017-08-02T07:58:56.926Z,3.83
2017-08-02T08:01:25.210Z,3.67
2017-08-02T08:03:52.759Z,6.03
2017-08-02T08:06:21.072Z,3.17
2017-08-02T08:08:48.594Z,3.00
2017-08-02T08:11:16.878Z,3.30
2017-08-02T08:13:45.155Z,3.83
2017-08-02T08:16:12.700Z,3.73
2017-08-02T08:18:40.992Z,3.07
2017-08-02T08:21:08.510Z,5.13
2017-08-02T08:23:36.028Z,4.57
2017-08-02T08:26:03.549Z,2.70
2017-08-02T08:28:31.858Z,3.10
2017-08-02T08:30:59.389Z,3.33
2017-08-02T08:33:27.667Z,4.17
2017-08-02T08:35:55.950Z,4.30
2017-08-02T08:38:23.469Z,3.77
2017-08-02T08:40:51.019Z,3.37
2017-08-02T08:43:18.536Z,4.27
2017-08-02T08:45:46.053Z,3.00
2017-08-02T08:48:13.579Z,4.33
2017-08-02T08:50:41.107Z,5.87
2017-08-02T08:53:08.909Z,3.00
2017-08-02T08:55:36.421Z,3.03
2017-08-02T08:58:04.705Z,3.70
2017-08-02T09:00:32.222Z,3.90
2017-08-02T09:02:59.748Z,2.90
2017-08-02T09:05:27.292Z,3.57
2017-08-02T09:07:54.818Z,4.03
2017-08-02T09:10:23.109Z,4.37
2017-08-02T09:12:51.469Z,4.30
2017-08-02T09:15:19.754Z,4.57
2017-08-02T09:17:48.069Z,4.33
2017-08-02T09:20:15.585Z,6.13
2017-08-02T09:22:43.869Z,3.30
2017-08-02T09:25:11.385Z,4.97
2017-08-02T09:27:38.898Z,4.97
2017-08-02T09:30:06.442Z,4.67
2017-08-02T09:32:34.734Z,3.80
2017-08-02T09:35:02.254Z,5.10
2017-08-02T09:37:29.770Z,2.67
2017-08-02T09:39:57.298Z,4.60
2017-08-02T09:42:24.850Z,4.47
2017-08-02T09:44:53.129Z,3.57
2017-08-02T09:47:21.414Z,4.33
2017-08-02T09:49:48.942Z,2.80
2017-08-02T09:52:16.474Z,3.63
2017-08-02T09:54:44.037Z,3.80
2017-08-02T09:57:11.553Z,3.27
2017-08-02T09:59:39.086Z,4.13
2017-08-02T10:02:07.373Z,3.43
2017-08-02T10:04:35.657Z,3.53
2017-08-02T10:07:03.361Z,6.30
2017-08-02T10:09:30.878Z,3.63
2017-08-02T10:11:59.172Z,3.90
2017-08-02T10:14:26.689Z,5.67
2017-08-02T10:16:54.201Z,5.63
2017-08-02T10:19:21.741Z,3.20
2017-08-02T10:21:49.262Z,5.27
2017-08-02T10:24:16.783Z,5.50
2017-08-02T10:26:44.297Z,6.47
2017-08-02T10:29:12.582Z,5.43
2017-08-02T10:31:40.131Z,5.40
2017-08-02T10:34:08.421Z,5.90
2017-08-02T10:36:35.939Z,5.23
2017-08-02T10:39:03.465Z,6.23
2017-08-02T10:41:30.978Z,6.03
2017-08-02T10:43:59.291Z,5.20
2017-08-02T10:46:26.804Z,4.30
2017-08-02T10:48:55.089Z,5.77
2017-08-02T10:51:23.374Z,4.67
2017-08-02T10:53:51.653Z,6.83
2017-08-02T10:56:19.201Z,4.80
2017-08-02T10:58:47.485Z,4.83
2017-08-02T11:01:15.010Z,6.37
2017-08-02T11:03:42.534Z,4.77
2017-08-02T11:06:10.049Z,5.00
2017-08-02T11:08:38.365Z,4.73
2017-08-02T11:11:05.884Z,5.30
2017-08-02T11:13:34.175Z,4.40
2017-08-02T11:16:01.706Z,4.83
2017-08-02T11:18:29.225Z,5.40
2017-08-02T11:20:56.774Z,4.63
2017-08-02T11:23:24.290Z,3.77
2017-08-02T11:25:52.569Z,3.87
2017-08-02T11:28:20.858Z,3.57
2017-08-02T11:30:48.375Z,3.37
2017-08-02T11:33:15.922Z,5.50
2017-08-02T11:35:43.460Z,3.67
2017-08-02T11:38:10.998Z,4.40
2017-08-02T11:40:38.517Z,7.60
2017-08-02T11:43:06.037Z,3.70
2017-08-02T11:45:33.582Z,4.30
2017-08-02T11:48:01.101Z,4.03
2017-08-02T11:50:28.614Z,3.67
2017-08-02T11:52:56.134Z,3.40
2017-08-02T11:55:24.417Z,4.73
2017-08-02T11:57:51.965Z,5.80
2017-08-02T12:00:20.255Z,4.20
2017-08-02T12:02:47.773Z,4.23
2017-08-02T12:05:15.291Z,4.47
2017-08-02T12:07:42.809Z,4.00
2017-08-02T12:10:11.131Z,3.60
2017-08-02T12:12:38.646Z,4.40
2017-08-02T12:15:06.934Z,4.60
2017-08-02T12:17:35.224Z,3.10
2017-08-02T12:20:02.763Z,3.30
2017-08-02T12:22:31.073Z,3.90
2017-08-02T12:24:58.582Z,3.97
2017-08-02T12:27:26.103Z,3.30
2017-08-02T12:29:53.631Z,4.70
2017-08-02T12:32:21.178Z,4.27
2017-08-02T12:34:49.490Z,4.00
2017-08-02T12:37:17.023Z,4.60
2017-08-02T12:39:44.541Z,5.90
2017-08-02T12:42:12.062Z,8.00
2017-08-02T12:44:39.586Z,4.47
2017-08-02T12:47:08.102Z,4.30
2017-08-02T12:49:35.631Z,6.03
2017-08-02T12:52:03.913Z,5.00
2017-08-02T12:54:31.439Z,5.70
2017-08-02T12:56:58.957Z,7.10
2017-08-02T12:59:26.502Z,4.73
2017-08-02T13:01:54.045Z,7.60
2017-08-02T13:04:22.452Z,4.30
2017-08-02T13:06:49.975Z,4.67
2017-08-02T13:09:18.259Z,4.73
2017-08-02T13:11:45.829Z,5.17
2017-08-02T13:14:13.354Z,8.53
2017-08-02T13:16:40.869Z,8.20
2017-08-02T13:19:08.406Z,5.53
2017-08-02T13:21:35.921Z,5.83
2017-08-02T13:24:03.478Z,16.47
2017-08-02T13:26:31.070Z,6.20
2017-08-02T13:28:58.784Z,9.20
2017-08-02T13:31:26.345Z,5.63
2017-08-02T13:33:55.009Z,5.27
2017-08-02T13:36:23.274Z,5.40
2017-08-02T13:38:50.947Z,4.50
2017-08-02T13:41:18.530Z,6.10
2017-08-02T13:43:46.041Z,5.33
2017-08-02T13:46:13.722Z,5.07
2017-08-02T13:48:41.301Z,5.53
2017-08-02T13:51:08.944Z,10.20
2017-08-02T13:53:36.458Z,5.50
2017-08-02T13:56:04.753Z,12.80
2017-08-02T13:58:32.269Z,5.20
2017-08-02T14:00:59.813Z,9.97
2017-08-02T14:03:27.332Z,4.57
2017-08-02T14:05:54.850Z,4.33
2017-08-02T14:08:22.374Z,5.23
2017-08-02T14:10:49.889Z,5.00
2017-08-02T14:13:18.193Z,3.67
2017-08-02T14:15:45.709Z,3.67
2017-08-02T14:18:13.229Z,3.90
2017-08-02T14:20:40.754Z,4.57
2017-08-02T14:23:08.268Z,4.70
2017-08-02T14:25:35.831Z,4.17
2017-08-02T14:28:03.346Z,4.50
2017-08-02T14:30:30.862Z,5.20
2017-08-02T14:32:58.741Z,3.87
2017-08-02T14:35:27.033Z,3.33
2017-08-02T14:37:54.570Z,4.77
2017-08-02T14:40:22.870Z,4.87
2017-08-02T14:42:50.388Z,3.90
2017-08-02T14:45:17.933Z,6.57
2017-08-02T14:47:45.569Z,4.00
2017-08-02T14:50:13.157Z,6.73
2017-08-02T14:52:40.834Z,4.30
2017-08-02T14:55:08.541Z,3.87
2017-08-02T14:57:37.089Z,4.80
2017-08-02T15:00:05.720Z,3.87
2017-08-02T15:02:33.401Z,4.33
2017-08-02T15:05:01.144Z,4.07
2017-08-02T15:07:28.807Z,4.07
2017-08-02T15:09:56.577Z,4.60
2017-08-02T15:12:24.102Z,3.35
2017-08-02T15:14:51.649Z,4.83
2017-08-02T15:17:19.938Z,4.13
2017-08-02T15:19:47.461Z,3.87
2017-08-02T15:22:14.983Z,4.47
2017-08-02T15:24:42.498Z,5.00
2017-08-02T15:27:10.801Z,3.75
2017-08-02T15:29:38.319Z,8.10
2017-08-02T15:32:05.845Z,4.45
2017-08-02T15:34:33.366Z,3.95
2017-08-02T15:37:00.885Z,4.15
2017-08-02T15:39:28.441Z,8.68
2017-08-02T15:41:55.962Z,10.30
2017-08-02T15:44:23.478Z,8.23
2017-08-02T15:46:51.767Z,8.50
2017-08-02T15:49:20.050Z,6.75
2017-08-02T15:51:47.598Z,6.47
2017-08-02T15:54:15.913Z,6.37
2017-08-02T15:56:43.435Z,6.78
2017-08-02T15:59:11.717Z,7.20
2017-08-02T16:01:39.233Z,5.68
2017-08-02T16:04:06.778Z,7.20
2017-08-02T16:06:34.294Z,9.50
2017-08-02T16:09:01.813Z,6.18
2017-08-02T16:11:29.326Z,7.37
2017-08-02T16:13:56.864Z,7.03
2017-08-02T16:16:25.177Z,9.73
2017-08-02T16:18:52.701Z,11.07
2017-08-02T16:21:20.222Z,9.23
2017-08-02T16:23:47.852Z,5.90
2017-08-02T16:26:15.371Z,5.20
2017-08-02T16:28:43.684Z,6.40
2017-08-02T16:31:11.213Z,5.77
2017-08-02T16:33:39.496Z,5.13
2017-08-02T16:36:07.021Z,4.60
2017-08-02T16:38:34.550Z,5.37
2017-08-02T16:41:02.106Z,5.30
2017-08-02T16:43:29.617Z,5.70
2017-08-02T16:45:57.902Z,7.57
2017-08-02T16:48:25.421Z,5.57
2017-08-02T16:50:52.940Z,5.43
2017-08-02T16:53:20.484Z,5.40
2017-08-02T16:55:48.025Z,7.17
2017-08-02T16:58:16.313Z,6.27
2017-08-02T17:00:43.842Z,9.00
2017-08-02T17:03:11.361Z,20.00
2017-08-02T17:05:38.912Z,28.40
2017-08-02T17:08:06.446Z,19.63
2017-08-02T17:10:34.734Z,14.50
2017-08-02T17:13:02.257Z,8.03
2017-08-02T17:15:29.786Z,14.43
2017-08-02T17:17:57.946Z,6.33
2017-08-02T17:20:25.474Z,9.53
2017-08-02T17:22:52.989Z,8.03
2017-08-02T17:25:20.507Z,11.73
2017-08-02T17:27:48.029Z,8.80
2017-08-02T17:30:16.334Z,6.37
2017-08-02T17:32:43.873Z,10.10
2017-08-02T17:35:12.166Z,13.47
2017-08-02T17:37:39.678Z,7.27
2017-08-02T17:40:07.206Z,6.73
2017-08-02T17:42:34.750Z,8.83
2017-08-02T17:45:02.275Z,8.40
2017-08-02T17:47:30.566Z,7.37
2017-08-02T17:49:58.087Z,7.50
2017-08-02T17:52:25.606Z,9.83
2017-08-02T17:54:53.159Z,7.30
2017-08-02T17:57:20.690Z,7.53
2017-08-02T17:59:48.978Z,8.20
2017-08-02T18:02:16.590Z,16.90
2017-08-02T18:04:44.115Z,16.57
2017-08-02T18:07:11.666Z,21.60
2017-08-02T18:09:39.374Z,13.07
2017-08-02T18:12:07.097Z,10.50
2017-08-02T18:14:34.750Z,8.97
2017-08-02T18:17:02.385Z,9.00
2017-08-02T18:19:30.914Z,10.17
2017-08-02T18:21:58.439Z,13.40
2017-08-02T18:24:26.889Z,18.33
2017-08-02T18:26:54.574Z,16.57
2017-08-02T18:29:23.113Z,13.50
2017-08-02T18:31:50.861Z,10.00
2017-08-02T18:34:18.581Z,11.47
2017-08-02T18:36:46.874Z,14.77
2017-08-02T18:39:15.170Z,9.70
2017-08-02T18:41:42.796Z,6.80
2017-08-02T18:44:11.229Z,6.80
2017-08-02T18:46:38.746Z,7.27
2017-08-02T18:49:06.437Z,7.60
2017-08-02T18:51:34.507Z,8.07
2017-08-02T18:54:02.030Z,8.37
2017-08-02T18:56:30.440Z,10.03
2017-08-02T18:58:58.108Z,11.47
2017-08-02T19:01:26.850Z,10.00
2017-08-02T19:03:55.176Z,10.87
2017-08-02T19:06:23.013Z,9.27
2017-08-02T19:08:50.568Z,15.87
2017-08-02T19:11:18.093Z,13.20
2017-08-02T19:13:45.812Z,12.50
2017-08-02T19:16:13.585Z,12.80
2017-08-02T19:18:41.202Z,8.27
2017-08-02T19:21:09.620Z,10.07
2017-08-02T19:23:37.265Z,7.33
2017-08-02T19:26:04.943Z,8.13
2017-08-02T19:28:32.587Z,19.53
2017-08-02T19:31:00.294Z,13.10
2017-08-02T19:33:27.837Z,7.20
2017-08-02T19:35:55.637Z,7.47
2017-08-02T19:38:23.268Z,8.47
2017-08-02T19:40:50.782Z,7.97
2017-08-02T19:43:19.074Z,9.13
2017-08-02T19:45:46.793Z,9.43
2017-08-02T19:48:14.573Z,12.47
2017-08-02T19:50:42.854Z,10.47
2017-08-02T19:53:11.363Z,10.47
2017-08-02T19:55:38.890Z,8.97
2017-08-02T19:58:07.202Z,9.00
2017-08-02T20:00:34.724Z,9.23
2017-08-02T20:03:03.006Z,8.30
2017-08-02T20:05:31.295Z,10.60
2017-08-02T20:07:58.833Z,9.03
2017-08-02T20:10:27.158Z,12.30
2017-08-02T20:12:54.815Z,10.87
2017-08-02T20:15:22.335Z,9.30
2017-08-02T20:17:50.620Z,13.03
2017-08-02T20:20:18.138Z,9.03
2017-08-02T20:22:45.678Z,7.30
2017-08-02T20:25:13.198Z,11.10
2017-08-02T20:27:40.725Z,9.87
2017-08-02T20:30:08.262Z,9.53
2017-08-02T20:32:35.778Z,9.83
2017-08-02T20:35:03.330Z,13.43
2017-08-02T20:37:30.858Z,8.73
2017-08-02T20:39:58.378Z,12.33
2017-08-02T20:42:25.905Z,15.10
2017-08-02T20:44:53.434Z,10.63
2017-08-02T20:47:20.986Z,11.13
2017-08-02T20:49:48.509Z,12.50
2017-08-02T20:52:16.043Z,13.50
2017-08-02T20:54:43.572Z,14.20
2017-08-02T20:57:11.094Z,10.50
2017-08-02T20:59:38.645Z,14.70
2017-08-02T21:02:06.169Z,13.13
2017-08-02T21:04:33.694Z,12.23
2017-08-02T21:07:01.221Z,12.50
2017-08-02T21:09:28.737Z,11.10
2017-08-02T21:11:57.053Z,9.77
2017-08-02T21:14:24.608Z,5.77
2017-08-02T21:16:52.122Z,5.93
2017-08-02T21:19:20.408Z,5.97
2017-08-02T21:21:48.689Z,7.80
2017-08-02T21:24:16.205Z,10.50
2017-08-02T21:26:43.718Z,9.47
2017-08-02T21:29:11.242Z,8.87
2017-08-02T21:31:38.762Z,8.90
2017-08-02T21:34:06.286Z,11.20
2017-08-02T21:36:33.822Z,9.30
2017-08-02T21:39:02.105Z,9.23
2017-08-02T21:41:30.389Z,8.70
2017-08-02T21:43:58.674Z,10.10
2017-08-02T21:46:26.197Z,10.53
2017-08-02T21:48:53.711Z,8.70
2017-08-02T21:51:21.262Z,9.47
2017-08-02T21:53:48.778Z,8.60
2017-08-02T21:56:17.065Z,8.13
2017-08-02T21:58:45.376Z,9.17
2017-08-02T22:01:24.829Z,9.80
2017-08-02T22:03:52.376Z,9.00
2017-08-02T22:06:19.894Z,9.17
2017-08-02T22:08:48.174Z,9.50
2017-08-02T22:11:16.453Z,8.53
2017-08-02T22:13:44.737Z,8.07
2017-08-02T22:16:13.142Z,9.10
2017-08-02T22:18:40.659Z,9.00
2017-08-02T22:21:09.082Z,9.57
2017-08-02T22:23:36.601Z,8.80
2017-08-02T22:26:04.890Z,9.13
2017-08-02T22:28:32.430Z,9.07
2017-08-02T22:31:00.714Z,10.17
2017-08-02T22:33:29.001Z,11.20
2017-08-02T22:35:56.517Z,9.90
2017-08-02T22:38:24.029Z,9.30
2017-08-02T22:40:51.572Z,8.33
2017-08-02T22:43:19.850Z,9.40
2017-08-02T22:45:47.365Z,8.70
2017-08-02T22:48:14.962Z,9.70
2017-08-02T22:50:42.506Z,9.60
2017-08-02T22:53:10.826Z,9.60
2017-08-02T22:55:38.372Z,8.97
2017-08-02T22:58:05.913Z,9.40
2017-08-02T23:00:33.510Z,10.17
2017-08-02T23:03:01.053Z,9.30
2017-08-02T23:05:28.631Z,18.23
2017-08-02T23:07:56.162Z,24.33
2017-08-02T23:10:23.730Z,28.00
2017-08-02T23:12:51.270Z,25.27
2017-08-02T23:15:19.574Z,15.70
2017-08-02T23:17:47.123Z,17.57
2017-08-02T23:20:14.666Z,13.20
2017-08-02T23:22:42.961Z,13.63
2017-08-02T23:25:10.522Z,11.27
2017-08-02T23:27:38.047Z,11.03
2017-08-02T23:30:06.353Z,10.40
2017-08-02T23:32:33.869Z,11.17
2017-08-02T23:35:01.402Z,13.00
2017-08-02T23:37:28.922Z,10.00
2017-08-02T23:39:56.454Z,12.33
2017-08-02T23:42:24.781Z,9.83
2017-08-02T23:44:52.301Z,10.83
2017-08-02T23:47:20.581Z,10.53
2017-08-02T23:49:48.861Z,10.60
2017-08-02T23:52:16.373Z,10.77
2017-08-02T23:54:43.922Z,11.10
2017-08-02T23:57:11.437Z,13.03
2017-08-02T23:59:38.957Z,11.30
